Flight Track Log - Related Links

Times and Time Zones

All times are in EST time to prevent confusion due to time zone crossing. See the BEE3892 flight status page for this flight to view local times or setup timezone preferences in your user account.

Time Position Orientation Groundspeed Altitude Reporting Facility
EST Latitude Longitude Course Direction KTS MPH feet Rate Location/Type
Tue 01:45:49 AM 63.0055 21.8210 150° Southeast  Level Estimated
Tue 01:46:49 AM 62.9494 21.8934 150° Southeast  Level Estimated
Tue 01:47:49 AM 62.8932 21.9656 150° Southeast  Level Estimated
Tue 01:48:49 AM 62.8370 22.0374 150° Southeast  Level Estimated
Tue 01:49:49 AM 62.7808 22.1090 150° Southeast  Level Estimated
Tue 01:50:49 AM 62.7245 22.1804 150° Southeast  Level Estimated
Tue 01:51:49 AM 62.6682 22.2514 150° Southeast  Level Estimated
Tue 01:52:49 AM 62.6119 22.3222 150° Southeast  Level Estimated
Tue 01:53:49 AM 62.5555 22.3927 150° Southeast  Level Estimated
Tue 01:54:49 AM 62.4991 22.4630 150° Southeast  Level Estimated
Tue 01:55:49 AM 62.4426 22.5329 150° Southeast  Level Estimated
Tue 01:56:49 AM 62.3862 22.6027 150° Southeast  Level Estimated
Tue 01:57:49 AM 62.3296 22.6721 150° Southeast  Level Estimated
Tue 01:58:49 AM 62.2731 22.7413 150° Southeast  Level Estimated
Tue 01:59:49 AM 62.2165 22.8103 150° Southeast  Level Estimated
Tue 02:00:49 AM 62.1599 22.8789 151° Southeast  Level Estimated
Tue 02:01:49 AM 62.0966 22.9553 151° Southeast  Level Estimated
Tue 02:02:49 AM 62.0334 23.0313 151° Southeast  Level Estimated
Tue 02:03:49 AM 61.9700 23.1071 151° Southeast  Level Estimated
Tue 02:04:49 AM 61.9067 23.1825 151° Southeast  Level Estimated
Tue 02:05:49 AM 61.8432 23.2576 151° Southeast  Level Estimated
Tue 02:06:49 AM 61.7798 23.3324 151° Southeast  Level Estimated
Tue 02:07:49 AM 61.7163 23.4069 151° Southeast  Level Estimated
Tue 02:08:49 AM 61.6528 23.4811 151° Southeast  Level Estimated
Tue 02:09:49 AM 61.5892 23.5549 151° Southeast  Level Estimated
Tue 02:10:49 AM 61.5256 23.6285 151° Southeast  Level Estimated
Tue 02:11:49 AM 61.4619 23.7018 151° Southeast  Level Estimated
Tue 02:12:49 AM 61.3982 23.7747 151° Southeast  Level Estimated
Tue 02:13:49 AM 61.3345 23.8474 151° Southeast  Level Estimated
Tue 02:14:49 AM 61.2707 23.9198 151° Southeast  Level Estimated
Tue 02:15:49 AM 61.2069 23.9919 152° Southeast  Level Estimated
Tue 02:16:49 AM 61.1431 24.0637 152° Southeast  Level Estimated
Tue 02:17:49 AM 61.0792 24.1352 152° Southeast  Level Estimated
Tue 02:18:49 AM 61.0153 24.2064 152° Southeast  Level Estimated
Tue 02:19:49 AM 60.9513 24.2773 152° Southeast  Level Estimated
Tue 02:20:49 AM 60.8873 24.3480 152° Southeast  Level Estimated
Tue 02:21:49 AM 60.8233 24.4183 152° Southeast  Level Estimated
Tue 02:22:49 AM 60.7592 24.4884 152° Southeast  Level Estimated
Tue 02:23:49 AM 60.6951 24.5582 152° Southeast  Level Estimated
Tue 02:24:49 AM 60.6310 24.6277 152° Southeast  Level Estimated
Tue 02:25:49 AM 60.5637 24.7003 152° Southeast  Level Estimated
Tue 02:26:49 AM 60.4963 24.7727 152° Southeast  Level Estimated
Tue 02:27:49 AM 60.4289 24.8447 152° Southeast  Level Estimated
Tue 02:28:49 AM 60.3615 24.9164 152° Southeast  Level Estimated
Tue 02:29:49 AM 60.2940 24.9878 332° Northwest  Level Estimated
Tue 02:30:49 AM 60.3615 24.9164 152° Southeast  Level Estimated
Tue 02:31:49 AM 60.2940 24.9878 332° Northwest  Level Estimated
Tue 02:32:49 AM 60.3615 24.9164 152° Southeast  Level Estimated
Tue 02:33:49 AM 60.2940 24.9878 332° Northwest  Level Estimated
Tue 02:34:49 AM 60.3615 24.9164 152° Southeast  Level Estimated
Tue 02:35:49 AM 60.2940 24.9878 332° Northwest  Level Estimated
Tue 02:36:49 AM 60.3615 24.9164 152° Southeast  Level Estimated
Tue 02:37:49 AM 60.2940 24.9878 332° Northwest  Level Estimated
Tue 02:38:49 AM 60.3615 24.9164 332° Northwest  Level Estimated

Login

Don't have an account? Register now (free) for customized features, flight alerts, and more!